Time;durP1;ratioP1;P1;durP2;ratioP2;P2;SDS_P1;SDS_P2;PMS_P1;PMS_P2;Temp;Humidity;BMP_temperature;BMP_pressure;BME280_temperature;BME280_humidity;BME280_pressure;Samples;Min_cycle;Max_cycle;Signal;HPM_P1;HPM_P2
2020/12/18 00:01:42;;;;;;;22.33;12.77;;;;;;;7.68;63.29;101635.97;5254078;27;20057;-87
2020/12/18 04:11:33;;;;;;;32.05;16.55;;;;;;;5.07;72.35;101718.16;5271082;27;20061;-88
2020/12/18 04:14:08;;;;;;;33.17;16.50;;;;;;;4.76;73.40;101721.28;5276860;27;20121;-87
2020/12/18 04:16:35;;;;;;;34.03;16.60;;;;;;;5.20;71.80;101727.31;5276603;27;20108;-88
2020/12/18 04:19:02;;;;;;;30.67;17.08;;;;;;;5.65;70.51;101724.63;5275694;27;20121;-88
2020/12/18 04:21:28;;;;;;;35.95;17.70;;;;;;;5.66;70.21;101718.56;5257250;27;20400;-88
2020/12/18 04:23:55;;;;;;;31.45;16.00;;;;;;;5.99;69.19;101716.25;5275780;27;20061;-88
2020/12/18 04:26:21;;;;;;;32.60;17.55;;;;;;;5.86;69.46;101722.75;5257915;27;20076;-88
2020/12/18 04:53:54;;;;;;;33.45;19.10;;;;;;;5.76;69.91;101722.34;5305655;26;20072;-89
2020/12/18 04:56:26;;;;;;;36.87;17.93;;;;;;;5.79;69.84;101727.69;5299906;27;20053;-89
2020/12/18 04:58:55;;;;;;;32.75;17.92;;;;;;;6.25;68.41;101719.72;5300327;27;20156;-89
2020/12/18 05:01:41;;;;;;;28.45;16.75;;;;;;;6.22;68.60;101726.59;5319920;27;20728;-89
2020/12/18 05:04:10;;;;;;;36.72;19.15;;;;;;;6.42;67.89;101728.13;5299422;27;20082;-89
2020/12/18 05:06:37;;;;;;;32.53;19.25;;;;;;;6.45;67.59;101730.84;5300821;27;20063;-89
2020/12/18 05:09:03;;;;;;;37.38;20.83;;;;;;;6.40;67.72;101731.50;5301078;27;20075;-89
2020/12/18 05:11:30;;;;;;;37.70;20.45;;;;;;;6.34;67.72;101737.41;5300221;27;20076;-89
2020/12/18 05:13:56;;;;;;;35.58;20.77;;;;;;;6.68;66.40;101721.13;5301361;27;20128;-89
2020/12/18 05:16:23;;;;;;;37.10;20.25;;;;;;;6.35;67.79;101726.13;5321033;27;20063;-90
2020/12/18 05:18:51;;;;;;;38.47;21.15;;;;;;;6.52;67.21;101729.28;5300764;27;20125;-89
2020/12/18 05:21:18;;;;;;;31.27;18.05;;;;;;;6.37;67.87;101732.28;5301193;27;20167;-89
2020/12/18 05:23:59;;;;;;;30.70;17.02;;;;;;;6.60;67.28;101718.25;5303781;27;20060;-89
2020/12/18 05:26:28;;;;;;;31.00;15.63;;;;;;;6.54;67.10;101720.69;5300755;27;20074;-89
2020/12/18 05:29:09;;;;;;;31.15;16.55;;;;;;;6.62;66.93;101730.47;5320960;27;20060;-90
2020/12/18 05:31:35;;;;;;;34.10;19.65;;;;;;;6.57;66.81;101726.00;5321190;27;20056;-89
2020/12/18 05:34:04;;;;;;;38.58;19.08;;;;;;;6.73;66.41;101732.56;5300187;27;20114;-89
2020/12/18 05:36:31;;;;;;;28.48;16.35;;;;;;;6.75;66.23;101740.47;5320455;27;20125;-89
2020/12/18 05:38:58;;;;;;;31.55;18.15;;;;;;;6.85;66.06;101742.50;5321173;27;20072;-89
2020/12/18 05:41:26;;;;;;;34.53;18.15;;;;;;;6.79;66.28;101732.78;5321132;27;20399;-89
2020/12/18 05:43:53;;;;;;;29.05;16.35;;;;;;;6.89;66.03;101738.28;5301212;27;20067;-88
2020/12/18 05:46:25;;;;;;;27.55;14.25;;;;;;;6.85;66.11;101724.22;5319524;27;20106;-88
2020/12/18 05:48:57;;;;;;;28.83;15.38;;;;;;;6.82;66.21;101739.81;5321030;27;20124;-89
2020/12/18 05:51:31;;;;;;;27.05;14.10;;;;;;;6.92;65.82;101744.50;5319750;27;20434;-89
2020/12/18 05:54:14;;;;;;;;;;;;;;;6.96;65.56;101737.63;5320622;27;20392;-89
2020/12/18 05:56:44;;;;;;;33.40;15.25;;;;;;;6.94;65.50;101736.69;5321267;27;20083;-88
2020/12/18 05:59:16;;;;;;;32.80;15.77;;;;;;;6.83;65.92;101741.59;5320906;27;20434;-88
2020/12/18 06:01:47;;;;;;;23.75;12.80;;;;;;;5.62;69.92;101748.84;5320546;27;20070;-89
2020/12/18 15:46:38;;;;;;;25.60;12.30;;;;;;;6.69;67.42;101800.34;5239667;27;20089;31
2020/12/18 15:49:05;;;;;;;32.33;14.35;;;;;;;5.79;70.01;101808.53;5252261;27;20053;-89
2020/12/18 15:51:33;;;;;;;29.35;13.77;;;;;;;5.67;71.21;101814.19;5269674;27;20057;-89
2020/12/18 15:54:00;;;;;;;26.33;12.93;;;;;;;5.34;72.49;101813.84;5253247;27;20061;-87
2020/12/18 15:56:28;;;;;;;25.37;11.82;;;;;;;5.13;73.33;101814.78;5254482;27;20087;-89
2020/12/18 15:58:55;;;;;;;24.87;13.35;;;;;;;5.49;71.80;101817.00;5234435;27;20444;-90
2020/12/18 16:01:22;;;;;;;22.05;11.23;;;;;;;5.48;72.42;101815.25;5254674;27;20479;-88
2020/12/18 16:03:49;;;;;;;21.87;11.85;;;;;;;5.90;71.34;101813.31;5234941;27;20128;-89
2020/12/18 16:06:19;;;;;;;28.12;12.93;;;;;;;6.09;70.54;101816.63;5234733;27;20620;-89
2020/12/18 16:08:46;;;;;;;24.00;12.05;;;;;;;5.78;70.80;101820.69;5254487;27;20086;-89
2020/12/18 16:11:13;;;;;;;24.52;12.35;;;;;;;6.16;69.79;101823.81;5234430;27;20151;-89
2020/12/18 16:13:40;;;;;;;26.70;12.57;;;;;;;5.06;73.63;101823.19;5254330;27;20065;-88
2020/12/18 16:16:06;;;;;;;26.65;12.77;;;;;;;4.66;75.27;101828.50;5270048;27;20110;-88
2020/12/18 16:18:35;;;;;;;22.83;9.88;;;;;;;4.80;75.21;101829.09;5270436;27;20121;-89
2020/12/18 16:21:02;;;;;;;26.42;12.48;;;;;;;5.10;73.42;101821.59;5254092;27;20392;-89
2020/12/18 16:23:29;;;;;;;23.17;11.18;;;;;;;4.70;74.69;101820.88;5254224;27;20030;-88
2020/12/18 16:25:56;;;;;;;27.73;10.35;;;;;;;4.54;75.48;101824.56;5253900;27;20054;-88
2020/12/18 16:28:25;;;;;;;25.42;11.55;;;;;;;4.48;75.43;101826.91;5253966;27;20057;-89
2020/12/18 16:30:52;;;;;;;22.90;10.57;;;;;;;3.58;78.96;101830.78;5253870;27;20518;-87
2020/12/18 16:33:21;;;;;;;28.87;10.80;;;;;;;3.98;77.76;101841.25;5252327;27;20219;-90
2020/12/18 16:35:48;;;;;;;32.67;12.05;;;;;;;3.95;77.68;101832.44;5253804;27;20126;-88
2020/12/18 16:38:14;;;;;;;29.80;12.15;;;;;;;4.25;77.10;101825.94;5234690;27;20054;-88
2020/12/18 16:40:41;;;;;;;41.00;13.15;;;;;;;4.17;77.58;101834.25;5251538;27;20054;-89
2020/12/18 16:43:07;;;;;;;39.45;14.93;;;;;;;4.46;76.52;101836.38;5270279;27;20065;-88
2020/12/18 16:45:35;;;;;;;36.15;12.98;;;;;;;4.47;76.53;101826.84;5253677;27;20089;-89
2020/12/18 16:48:02;;;;;;;30.27;13.60;;;;;;;4.82;75.20;101825.69;5251825;27;20558;-88
2020/12/18 16:50:28;;;;;;;30.30;13.20;;;;;;;4.37;76.80;101828.19;5253922;27;20689;-89
2020/12/18 16:52:55;;;;;;;32.55;13.55;;;;;;;4.53;76.30;101832.34;5254017;27;20420;-89
2020/12/18 16:55:21;;;;;;;29.63;13.30;;;;;;;4.82;74.63;101830.88;5253628;27;20109;-89
2020/12/18 16:57:48;;;;;;;27.25;12.93;;;;;;;4.47;76.35;101834.66;5253676;27;20073;-89
2020/12/18 17:00:21;;;;;;;23.92;12.25;;;;;;;4.32;77.06;101832.28;5235605;27;20067;-88
2020/12/18 17:02:48;;;;;;;24.08;12.07;;;;;;;5.07;74.14;101821.47;5254369;27;20057;-88
2020/12/18 17:05:14;;;;;;;29.83;14.68;;;;;;;4.63;75.66;101824.06;5254537;27;20066;-89
2020/12/18 17:07:41;;;;;;;34.08;14.93;;;;;;;4.84;75.31;101830.97;5254682;27;20121;-89
2020/12/18 17:10:12;;;;;;;28.50;13.07;;;;;;;4.46;76.18;101831.16;5254218;27;20120;-89
2020/12/18 17:12:39;;;;;;;30.55;14.60;;;;;;;4.38;76.61;101829.06;5253288;27;20061;-88
2020/12/18 17:15:14;;;;;;;27.15;13.25;;;;;;;4.15;76.68;101821.19;5269953;27;20590;-88
2020/12/18 17:17:40;;;;;;;27.08;12.90;;;;;;;3.82;78.59;101821.50;5253222;27;20077;-89
2020/12/18 17:20:07;;;;;;;27.08;12.95;;;;;;;3.83;79.09;101824.97;5270881;27;20058;-88
2020/12/18 17:22:39;;;;;;;22.90;11.38;;;;;;;3.73;79.07;101822.78;5270841;27;20505;-88
2020/12/18 17:25:06;;;;;;;30.45;12.90;;;;;;;3.63;78.99;101824.97;5235381;27;20703;-88
2020/12/18 17:27:33;;;;;;;29.87;13.23;;;;;;;4.08;77.56;101826.94;5254567;27;20111;-88
2020/12/18 17:29:59;;;;;;;29.63;12.02;;;;;;;3.77;79.21;101820.41;5271328;27;20732;-88
2020/12/18 17:32:26;;;;;;;24.25;10.90;;;;;;;4.20;77.11;101822.25;5255234;27;20050;-87
2020/12/18 17:35:07;;;;;;;27.55;12.45;;;;;;;3.39;79.58;101827.34;5235991;27;20064;-88
2020/12/18 17:37:34;;;;;;;21.75;10.10;;;;;;;3.59;79.96;101824.78;5254592;27;20325;-89
2020/12/18 17:40:03;;;;;;;29.15;12.00;;;;;;;3.91;78.56;101825.31;5235587;27;20042;-89
2020/12/18 17:42:29;;;;;;;21.75;11.73;;;;;;;4.12;78.27;101815.84;5235401;27;20066;-88
2020/12/18 17:44:56;;;;;;;23.48;12.25;;;;;;;3.50;80.17;101824.31;5254860;27;20100;-88
2020/12/18 17:47:23;;;;;;;27.02;14.82;;;;;;;3.97;78.45;101821.28;5235371;27;20121;-88
2020/12/18 17:49:49;;;;;;;24.83;11.95;;;;;;;3.81;77.87;101824.91;5270575;27;20074;-88
2020/12/18 17:52:16;;;;;;;23.67;11.05;;;;;;;3.31;80.44;101828.69;5253307;27;20057;-89
2020/12/18 17:55:04;;;;;;;21.37;11.12;;;;;;;3.93;77.95;101821.06;5254715;27;20085;-89
2020/12/18 17:57:31;;;;;;;22.00;11.95;;;;;;;4.40;75.85;101817.00;5254621;27;20064;-89
2020/12/18 17:59:57;;;;;;;24.25;12.30;;;;;;;3.46;79.33;101827.63;5270640;27;20349;-89
2020/12/18 18:02:24;;;;;;;20.45;9.77;;;;;;;3.61;79.64;101830.91;5254091;27;20443;-89
2020/12/18 18:04:50;;;;;;;22.48;10.57;;;;;;;3.58;79.45;101823.84;5254913;27;20075;-89
2020/12/18 18:07:17;;;;;;;25.02;10.80;;;;;;;3.90;77.96;101826.13;5235242;27;20129;-89
2020/12/18 18:09:43;;;;;;;21.60;11.10;;;;;;;3.76;79.23;101821.19;5254447;27;20096;-89
2020/12/18 18:12:10;;;;;;;21.77;11.23;;;;;;;3.41;80.92;101827.41;5253722;27;20058;-89
2020/12/18 18:14:36;;;;;;;22.52;10.70;;;;;;;3.22;81.86;101820.47;5254141;27;20533;-89
2020/12/18 18:17:06;;;;;;;24.40;11.32;;;;;;;3.38;80.52;101825.56;5235065;27;20065;-89
2020/12/18 18:19:32;;;;;;;25.67;12.65;;;;;;;3.99;78.65;101816.13;5252586;27;20098;-88
2020/12/18 18:21:59;;;;;;;25.52;11.57;;;;;;;3.78;79.64;101821.28;5234732;27;20069;-88
2020/12/18 18:24:25;;;;;;;30.83;16.08;;;;;;;4.26;77.39;101819.91;5270669;27;20501;-89
2020/12/18 18:26:56;;;;;;;34.25;17.02;;;;;;;4.44;76.86;101821.50;5253830;27;20104;-89
2020/12/18 18:29:24;;;;;;;22.87;11.93;;;;;;;4.55;76.68;101820.25;5271019;27;20529;-89
2020/12/18 18:31:51;;;;;;;27.17;12.20;;;;;;;4.36;76.41;101812.50;5254297;27;20129;-89
2020/12/18 18:34:18;;;;;;;21.60;10.05;;;;;;;3.66;79.60;101821.62;5254346;27;20050;-89
2020/12/18 18:36:44;;;;;;;24.25;12.82;;;;;;;4.18;77.41;101816.13;5253784;27;20100;-89
2020/12/18 18:39:11;;;;;;;25.25;10.90;;;;;;;4.01;78.99;101819.69;5252964;27;20496;-88
2020/12/18 18:41:39;;;;;;;23.70;11.27;;;;;;;4.67;76.10;101814.66;5234572;27;20066;-88
2020/12/18 18:44:08;;;;;;;27.67;11.85;;;;;;;4.35;76.82;101811.59;5251911;27;20070;-89
2020/12/18 18:46:37;;;;;;;22.17;11.15;;;;;;;4.00;78.31;101810.09;5253894;27;20079;-89
2020/12/18 18:49:05;;;;;;;20.17;10.30;;;;;;;4.56;76.19;101809.03;5234816;27;20628;-88
2020/12/18 18:51:34;;;;;;;18.98;9.85;;;;;;;4.47;76.03;101812.13;5252074;27;20420;-89
2020/12/18 18:54:00;;;;;;;23.27;11.23;;;;;;;4.78;75.41;101803.84;5252162;27;20066;-89
2020/12/18 18:56:27;;;;;;;21.40;10.35;;;;;;;4.48;75.68;101805.22;5254478;27;20208;-89
2020/12/18 18:58:54;;;;;;;24.60;9.73;;;;;;;5.09;73.86;101794.66;5252558;27;20387;-89
2020/12/18 19:01:39;;;;;;;28.60;12.57;;;;;;;4.98;74.29;101796.84;5254417;27;20684;-88
2020/12/18 19:04:06;;;;;;;21.17;10.55;;;;;;;4.00;78.29;101794.50;5254369;27;20084;-88
2020/12/18 19:06:32;;;;;;;18.35;10.15;;;;;;;4.84;75.80;101799.72;5253786;27;20108;-88
2020/12/18 19:08:59;;;;;;;18.42;10.02;;;;;;;5.21;73.75;101789.91;5254265;27;20054;-89
2020/12/18 19:11:25;;;;;;;20.75;10.38;;;;;;;5.40;73.23;101791.47;5234800;27;20379;-88
2020/12/18 19:13:52;;;;;;;20.45;9.75;;;;;;;5.65;72.52;101792.41;5254328;27;20074;-87
2020/12/18 19:16:18;;;;;;;23.08;10.98;;;;;;;5.89;71.82;101784.56;5254233;27;20096;-88
2020/12/18 19:18:45;;;;;;;22.40;10.63;;;;;;;6.01;70.91;101791.97;5234835;27;20065;-88
2020/12/18 19:21:12;;;;;;;24.02;10.05;;;;;;;5.98;70.49;101795.38;5270977;27;20117;-88
2020/12/18 19:23:39;;;;;;;20.88;10.52;;;;;;;6.15;69.80;101790.75;5253850;27;20066;-87
2020/12/18 19:26:05;;;;;;;20.37;10.57;;;;;;;6.00;70.15;101792.78;5253173;27;20058;-87
2020/12/18 19:28:31;;;;;;;21.65;10.35;;;;;;;5.63;71.52;101794.94;5234839;27;20084;-88
2020/12/18 19:30:59;;;;;;;23.90;11.57;;;;;;;6.16;69.69;101789.00;5247317;27;174526;-89
2020/12/18 19:33:43;;;;;;;30.95;12.60;;;;;;;5.47;71.86;101793.50;5268291;27;20074;-88
2020/12/18 19:36:10;;;;;;;24.08;11.77;;;;;;;4.93;74.45;101798.34;5270208;27;20053;-87
2020/12/18 19:38:36;;;;;;;25.73;12.55;;;;;;;4.70;75.23;101788.75;5253888;27;20375;-87
2020/12/18 19:41:09;;;;;;;22.58;10.57;;;;;;;5.38;72.95;101797.47;5252356;27;20074;-87
2020/12/18 19:43:52;;;;;;;24.00;11.05;;;;;;;5.40;73.52;101795.81;5220916;27;20073;-88
2020/12/18 19:46:19;;;;;;;20.88;11.60;;;;;;;5.66;72.75;101791.56;5252642;27;20088;-87
2020/12/18 19:48:53;;;;;;;28.62;12.10;;;;;;;5.91;71.73;101790.72;5254004;27;20076;-87
2020/12/18 19:51:22;;;;;;;26.30;13.30;;;;;;;6.00;71.30;101796.31;5254148;27;20077;-87
2020/12/18 19:53:54;;;;;;;23.17;13.68;;;;;;;5.88;71.71;101801.03;5253872;27;20133;-87
2020/12/18 19:56:37;;;;;;;23.55;12.07;;;;;;;6.43;68.88;101794.28;5253949;27;20068;-87
2020/12/18 19:59:05;;;;;;;24.90;11.43;;;;;;;5.80;71.06;101800.78;5251785;27;20065;-88
2020/12/18 20:01:41;;;;;;;26.50;12.75;;;;;;;4.82;75.16;101802.25;5268844;27;20062;-88
2020/12/18 20:04:08;;;;;;;29.15;13.57;;;;;;;4.43;77.96;101806.72;5253725;27;20062;-87
2020/12/18 20:06:35;;;;;;;25.80;12.35;;;;;;;5.55;72.82;101805.94;5234328;27;20100;-88
2020/12/18 20:09:03;;;;;;;23.08;12.80;;;;;;;5.39;73.28;101802.75;5270550;27;20046;-88
2020/12/18 20:11:30;;;;;;;27.05;12.05;;;;;;;5.52;72.71;101804.09;5252381;27;20073;-88
2020/12/18 20:13:56;;;;;;;25.27;11.57;;;;;;;5.46;73.01;101806.47;5270458;27;20066;-89
2020/12/18 20:16:24;;;;;;;29.52;13.07;;;;;;;5.72;72.05;101803.94;5253806;27;20392;-89
2020/12/18 20:18:55;;;;;;;29.27;13.60;;;;;;;4.84;75.07;101802.31;5270439;27;20174;-88
2020/12/18 20:21:25;;;;;;;27.17;13.10;;;;;;;5.19;74.05;101806.31;5253438;27;20658;-88
2020/12/18 20:23:53;;;;;;;25.12;12.45;;;;;;;5.43;73.61;101806.34;5253378;27;20061;-88
2020/12/18 20:26:22;;;;;;;24.52;10.48;;;;;;;5.55;73.06;101798.09;5253605;27;20095;-89
2020/12/18 20:28:49;;;;;;;31.25;14.85;;;;;;;5.70;72.74;101801.25;5253599;27;20134;-89
2020/12/18 20:31:18;;;;;;;27.67;12.18;;;;;;;5.73;72.16;101801.38;5253051;27;20129;-88
2020/12/18 20:33:46;;;;;;;23.73;12.90;;;;;;;5.38;73.44;101798.38;5253705;27;20069;-88
2020/12/18 20:36:16;;;;;;;27.23;11.73;;;;;;;5.05;75.00;101786.66;5269765;27;20465;-88
2020/12/18 20:38:43;;;;;;;25.12;12.60;;;;;;;4.97;74.97;101786.34;5270172;27;20419;-88
2020/12/18 20:41:10;;;;;;;24.25;11.48;;;;;;;4.56;77.17;101790.81;5252029;27;20061;-88
2020/12/18 20:43:36;;;;;;;26.42;11.10;;;;;;;4.51;77.24;101797.53;5253168;27;20085;-88
2020/12/18 20:46:03;;;;;;;27.98;12.82;;;;;;;4.35;78.76;101793.37;5234348;27;20058;-88
2020/12/18 20:48:29;;;;;;;27.83;13.45;;;;;;;4.72;77.24;101787.97;5253069;27;20034;-88
2020/12/18 20:50:56;;;;;;;25.17;11.15;;;;;;;4.74;77.25;101790.66;5234221;27;20108;-88
2020/12/18 20:53:24;;;;;;;22.30;10.18;;;;;;;5.27;75.53;101788.38;5253992;27;20058;-88
2020/12/18 20:55:55;;;;;;;23.65;11.05;;;;;;;5.28;75.20;101787.53;5251941;27;20396;-88
2020/12/18 20:58:22;;;;;;;26.20;12.10;;;;;;;5.28;75.18;101782.31;5253796;27;20064;-88
2020/12/18 21:00:51;;;;;;;24.17;11.68;;;;;;;5.27;75.25;101788.38;5251890;27;20156;-88
2020/12/18 21:03:19;;;;;;;24.27;10.60;;;;;;;4.71;76.98;101790.53;5252217;27;20073;-88
2020/12/18 21:05:46;;;;;;;25.75;12.37;;;;;;;5.31;75.01;101787.66;5251963;27;20053;-87
2020/12/18 21:08:12;;;;;;;20.70;10.57;;;;;;;5.28;74.69;101785.81;5253434;27;20054;-88
2020/12/18 21:10:39;;;;;;;21.95;11.15;;;;;;;5.45;74.24;101784.72;5269986;27;20096;-88
2020/12/18 21:13:05;;;;;;;19.75;9.98;;;;;;;5.60;73.83;101784.41;5253117;27;20419;-89
2020/12/18 21:15:32;;;;;;;18.15;9.80;;;;;;;5.79;73.21;101777.25;5253564;27;20124;-88
2020/12/18 21:17:59;;;;;;;18.05;9.50;;;;;;;5.90;72.70;101784.59;5253039;27;20085;-87
2020/12/18 21:20:25;;;;;;;16.83;9.20;;;;;;;6.05;72.07;101781.69;5253262;27;20081;-88
2020/12/18 21:22:52;;;;;;;14.68;8.38;;;;;;;6.17;71.52;101775.13;5252228;27;20852;-89
2020/12/18 21:25:18;;;;;;;16.85;8.02;;;;;;;6.09;71.36;101777.47;5253390;27;20050;-88
2020/12/18 21:28:05;;;;;;;15.18;8.05;;;;;;;6.03;71.30;101775.53;5252188;27;20070;-88
2020/12/18 21:30:31;;;;;;;14.73;8.48;;;;;;;5.75;72.05;101783.19;5252661;27;20108;-88
2020/12/18 21:33:04;;;;;;;13.88;7.70;;;;;;;6.11;70.63;101779.28;5235385;27;20061;-88
2020/12/18 21:35:36;;;;;;;13.07;7.72;;;;;;;6.08;70.58;101773.97;5252904;27;20456;-88
2020/12/18 21:38:05;;;;;;;12.70;8.32;;;;;;;6.23;70.02;101770.97;5251405;27;20081;-88
2020/12/18 21:40:37;;;;;;;12.80;7.10;;;;;;;6.29;69.64;101771.19;5253591;27;20076;-88
2020/12/18 21:43:13;;;;;;;14.40;7.72;;;;;;;6.13;69.51;101777.62;5253401;27;20582;-88
2020/12/18 21:45:41;;;;;;;14.63;7.37;;;;;;;6.08;69.55;101773.97;5234068;27;20446;-88
2020/12/18 21:48:08;;;;;;;14.32;7.53;;;;;;;6.14;69.64;101779.37;5251477;27;20065;-88
2020/12/18 21:50:36;;;;;;;12.73;7.20;;;;;;;6.28;69.25;101769.41;5254463;27;20058;-88
2020/12/18 21:53:03;;;;;;;14.68;7.60;;;;;;;6.35;69.17;101770.50;5254379;27;20062;-88
2020/12/18 21:55:29;;;;;;;13.77;8.57;;;;;;;6.43;68.91;101765.56;5253014;27;20054;-88
2020/12/18 21:57:56;;;;;;;14.93;8.07;;;;;;;6.55;68.59;101771.16;5254675;27;20057;-88
2020/12/18 22:00:25;;;;;;;16.23;8.65;;;;;;;6.57;68.42;101767.78;5252334;27;20081;-88
2020/12/18 22:02:52;;;;;;;15.45;7.97;;;;;;;6.46;68.48;101765.66;5254228;27;20066;-88
2020/12/18 22:05:23;;;;;;;15.50;7.03;;;;;;;6.20;69.21;101775.22;5254488;27;20133;-89
2020/12/18 22:07:51;;;;;;;13.30;7.40;;;;;;;6.33;68.25;101773.09;5234675;27;20076;-89
2020/12/18 22:10:18;;;;;;;12.00;7.30;;;;;;;6.14;69.29;101781.12;5254188;27;20065;-88
2020/12/18 22:12:46;;;;;;;15.38;8.15;;;;;;;6.03;69.75;101775.53;5252261;27;20085;-89
2020/12/18 22:15:13;;;;;;;15.35;7.75;;;;;;;6.33;68.88;101780.91;5270875;27;20062;-88
2020/12/18 22:17:40;;;;;;;13.88;8.02;;;;;;;6.33;68.71;101774.81;5252706;27;20305;-88
2020/12/18 22:20:07;;;;;;;12.50;7.22;;;;;;;6.13;69.38;101772.41;5254634;27;20088;-88
2020/12/18 22:22:33;;;;;;;11.77;6.75;;;;;;;6.28;68.81;101774.66;5252430;27;20436;-88
2020/12/18 22:25:00;;;;;;;14.73;8.48;;;;;;;6.47;68.25;101776.16;5235241;27;20058;-89
2020/12/18 22:27:26;;;;;;;12.90;6.97;;;;;;;6.48;68.20;101769.22;5253693;27;20071;-88
2020/12/18 22:29:53;;;;;;;14.52;7.07;;;;;;;6.45;68.41;101763.88;5254136;27;20432;-88
2020/12/18 22:32:19;;;;;;;16.00;8.10;;;;;;;6.28;68.44;101768.53;5254270;27;20076;-88
2020/12/18 22:34:46;;;;;;;15.75;7.75;;;;;;;5.99;69.58;101775.38;5253492;27;20113;-88
2020/12/18 22:37:13;;;;;;;18.60;8.50;;;;;;;6.09;69.17;101773.16;5234810;27;20062;-88
2020/12/18 22:39:39;;;;;;;14.77;6.97;;;;;;;6.00;69.63;101775.44;5254360;27;20412;-89
2020/12/18 22:42:05;;;;;;;15.48;8.38;;;;;;;6.17;68.97;101769.91;5253121;27;20419;-88
2020/12/18 22:44:33;;;;;;;16.73;9.15;;;;;;;6.20;68.52;101775.22;5254479;27;20101;-88
2020/12/18 22:47:03;;;;;;;14.95;7.60;;;;;;;6.30;68.31;101769.50;5252294;27;20066;-88
2020/12/18 22:49:29;;;;;;;14.20;7.72;;;;;;;6.11;69.00;101774.06;5253894;27;20065;-88
2020/12/18 22:51:57;;;;;;;15.25;7.32;;;;;;;6.18;68.73;101777.78;5254137;27;20211;-87
2020/12/18 22:54:24;;;;;;;15.85;8.55;;;;;;;6.26;68.44;101772.81;5253948;27;20071;-89
2020/12/18 22:56:50;;;;;;;15.65;8.38;;;;;;;6.00;69.13;101770.22;5254325;27;20106;-88
2020/12/18 22:59:17;;;;;;;15.70;8.13;;;;;;;6.09;69.00;101769.66;5253680;27;20126;-88
2020/12/18 23:01:50;;;;;;;12.65;7.40;;;;;;;6.14;68.76;101774.16;5270794;27;20079;-89
2020/12/18 23:04:17;;;;;;;14.48;7.50;;;;;;;6.17;68.50;101775.13;5252512;27;20073;-89
2020/12/18 23:06:44;;;;;;;15.25;6.97;;;;;;;6.31;68.06;101771.25;5252312;27;20054;-88
2020/12/18 23:09:12;;;;;;;13.05;7.25;;;;;;;6.39;67.72;101769.78;5253856;27;20077;-89
2020/12/18 23:11:38;;;;;;;14.50;7.05;;;;;;;6.44;67.05;101772.53;5253602;27;20065;-88
2020/12/18 23:14:05;;;;;;;12.13;6.45;;;;;;;6.34;67.42;101772.25;5252688;27;20072;-88
2020/12/18 23:16:31;;;;;;;13.93;7.07;;;;;;;6.02;68.50;101776.34;5252112;27;20050;-89
2020/12/18 23:18:58;;;;;;;12.95;6.55;;;;;;;6.10;68.36;101774.03;5254191;27;20126;-89
2020/12/18 23:21:25;;;;;;;12.82;7.15;;;;;;;6.23;68.11;101770.09;5254058;27;20061;-88
2020/12/18 23:23:51;;;;;;;11.30;6.72;;;;;;;6.14;68.28;101773.28;5253672;27;20100;-88
2020/12/18 23:26:19;;;;;;;12.75;7.82;;;;;;;5.86;69.33;101771.41;5253886;27;20070;-88
2020/12/18 23:28:46;;;;;;;14.27;7.40;;;;;;;6.05;68.36;101768.63;5253446;27;20432;-88
2020/12/18 23:31:15;;;;;;;11.90;6.53;;;;;;;5.33;70.52;101778.19;5253967;27;20100;-88
2020/12/18 23:33:42;;;;;;;14.52;7.28;;;;;;;5.44;70.73;101769.94;5252344;27;20133;-88
2020/12/18 23:36:09;;;;;;;14.52;6.70;;;;;;;5.39;70.95;101767.97;5252398;27;20463;-89
2020/12/18 23:38:35;;;;;;;12.93;6.82;;;;;;;5.38;70.97;101774.00;5251999;27;20085;-88
2020/12/18 23:41:02;;;;;;;13.27;6.57;;;;;;;5.74;69.87;101771.88;5254081;27;20081;-87
2020/12/18 23:43:28;;;;;;;10.40;6.00;;;;;;;5.65;70.27;101771.53;5252528;27;20061;-89
2020/12/18 23:45:54;;;;;;;11.32;6.22;;;;;;;5.68;69.86;101767.31;5254199;27;20154;-88
2020/12/18 23:48:23;;;;;;;13.50;6.47;;;;;;;5.69;69.81;101763.88;5253485;27;20066;-89
2020/12/18 23:50:51;;;;;;;11.65;6.55;;;;;;;5.69;69.71;101763.00;5252452;27;20073;-87
2020/12/18 23:53:18;;;;;;;10.50;6.18;;;;;;;5.87;69.16;101763.62;5254303;27;20064;-88
2020/12/18 23:55:44;;;;;;;13.10;7.40;;;;;;;6.05;68.60;101765.16;5254070;27;20061;-89
2020/12/18 23:58:11;;;;;;;14.30;7.37;;;;;;;6.27;67.88;101749.38;5254059;27;20066;-88
